Home   Weather   Mooresville   Past weeks
Flag for USA

Past Weather in Mooresville, North Carolina, USA — Yesterday and Last 2 Weeks

Currently: 55 °F. Mostly cloudy. (Weather station: Statesville Municipal Airport, USA). See more current weather

Past Weather in Mooresville — Graph

°F

Mooresville Temperature Yesterday

Maximum temperature yesterday: 58 °F (at 3:15 pm)
Minimum temperature yesterday: 24 °F (at 5:55 am)
Average temperature yesterday: 41 °F

High & Low Weather Summary for the Past Weeks

 TemperatureHumidityPressure
High72 °F (Nov 21, 2:35 pm)99% (Nov 26, 5:35 am)30.55 "Hg (Nov 26, 5:35 am)
Low24 °F (Dec 3, 5:55 am)22% (Nov 23, 2:15 pm)29.47 "Hg (Nov 30, 7:35 am)
Average48 °F71%30.15 "Hg
* Reported Nov 19 2:15 pm — Dec 4 2:55 pm, Mooresville. Weather by CustomWeather, © 2020

Note: Actual official high and low records may vary slightly from our data, if they occured in-between our weather recording intervals... More about our weather records

Mooresville Weather History for the Previous 24 Hours

Scroll right to see more
 ConditionsComfort  
Time TempWeatherWind HumidityBarometerVisibility
2:55 pm
Fri, Dec 4
54 °FMore clouds than sun.No wind76%29.98 "Hg10 mi
2:35 pm55 °FLight rain. Partly sunny.3 mph74%29.99 "Hg10 mi
2:15 pm56 °FScattered clouds.6 mph72%30.00 "Hg10 mi
1:35 pm56 °FBroken clouds.6 mph68%30.04 "Hg10 mi
12:55 pm54 °FMostly cloudy.No wind60%30.07 "Hg10 mi
12:35 pm52 °FOvercast.No wind59%30.09 "Hg10 mi
12:15 pm52 °FOvercast.No wind56%30.10 "Hg10 mi
11:55 am51 °FOvercast.3 mph55%30.11 "Hg10 mi
11:35 am51 °FMostly cloudy.3 mph53%30.13 "Hg10 mi
11:15 am50 °FOvercast.3 mph54%30.14 "Hg10 mi
10:55 am50 °FOvercast.5 mph55%30.16 "Hg10 mi
10:35 am49 °FMostly cloudy.5 mph56%30.16 "Hg10 mi
10:15 am49 °FMostly cloudy.No wind58%30.16 "Hg10 mi
9:55 am48 °FMore clouds than sun.3 mph60%30.17 "Hg10 mi
9:35 am46 °FMostly cloudy.No wind61%30.17 "Hg10 mi
9:15 am46 °FOvercast.5 mph63%30.16 "Hg10 mi
8:35 am45 °FMore clouds than sun.No wind63%30.17 "Hg10 mi
8:15 am44 °FMore clouds than sun.3 mph63%30.18 "Hg10 mi
7:35 am43 °FMore clouds than sun.3 mph66%30.17 "Hg10 mi
7:15 am42 °FPartly cloudy.3 mph69%30.17 "Hg10 mi
6:55 am43 °FPartly cloudy.3 mph68%30.17 "Hg10 mi
6:35 am43 °FPartly cloudy.No wind67%30.17 "Hg10 mi
6:15 am44 °FPassing clouds.No wind66%30.16 "Hg10 mi
5:55 am44 °FPassing clouds.3 mph69%30.16 "Hg10 mi
5:35 am44 °FOvercast.No wind68%30.17 "Hg10 mi
5:15 am44 °FOvercast.3 mph70%30.17 "Hg10 mi
4:55 am43 °FOvercast.3 mph76%30.15 "Hg10 mi
4:35 am42 °FMostly cloudy.No wind85%30.16 "Hg10 mi
4:15 am42 °FOvercast.5 mph88%30.18 "Hg10 mi
3:55 am42 °FLight rain. Overcast.3 mph80%30.18 "Hg10 mi
3:35 am42 °FLight rain. Overcast.3 mph80%30.19 "Hg10 mi
3:15 am44 °FLight rain. Mostly cloudy.5 mph65%30.19 "Hg10 mi
2:55 am45 °FLight rain. Mostly cloudy.5 mph63%30.20 "Hg10 mi
2:35 am46 °FMostly cloudy.5 mph57%30.19 "Hg10 mi
2:15 am46 °FPassing clouds.6 mph57%30.20 "Hg10 mi
1:55 am45 °FPassing clouds.5 mph58%30.20 "Hg10 mi
1:35 am45 °FPassing clouds.5 mph58%30.20 "Hg10 mi
1:15 am46 °FOvercast.3 mph56%30.19 "Hg10 mi
12:55 am46 °FOvercast.3 mph55%30.21 "Hg10 mi
12:35 am46 °FOvercast.5 mph54%30.21 "Hg10 mi
12:15 am46 °FOvercast.3 mph53%30.20 "Hg10 mi
11:55 pm
Thu, Dec 3
46 °FPassing clouds.3 mph55%30.22 "Hg10 mi
11:35 pm45 °FPassing clouds.3 mph56%30.23 "Hg10 mi
11:15 pm45 °FOvercast.5 mph55%30.24 "Hg10 mi
10:55 pm43 °FPassing clouds.5 mph61%30.24 "Hg10 mi
10:35 pm44 °FPartly cloudy.3 mph55%30.25 "Hg10 mi
10:15 pm45 °FMostly cloudy.5 mph53%30.25 "Hg10 mi
9:55 pm45 °FOvercast.3 mph54%30.25 "Hg10 mi
9:35 pm45 °FOvercast.3 mph51%30.25 "Hg10 mi
9:15 pm44 °FPassing clouds.No wind51%30.25 "Hg10 mi
8:35 pm45 °FClear.6 mph50%30.26 "Hg10 mi
8:15 pm46 °FClear.3 mph47%30.24 "Hg10 mi
7:55 pm44 °FClear.5 mph48%30.26 "Hg10 mi
7:35 pm46 °FClear.3 mph45%30.24 "Hg10 mi
6:55 pm47 °FClear.3 mph40%30.24 "Hg10 mi
6:35 pm46 °FClear.3 mph44%30.25 "Hg10 mi
6:15 pm49 °FClear.No wind35%30.24 "Hg10 mi
5:55 pm48 °FClear.No wind38%30.24 "Hg10 mi
5:35 pm51 °FClear.No wind31%30.24 "Hg10 mi
5:15 pm52 °FClear.No wind30%30.23 "Hg10 mi
4:55 pm53 °FSunny.3 mph30%30.23 "Hg10 mi
4:35 pm54 °FSunny.3 mph28%30.24 "Hg10 mi
4:15 pm56 °FSunny.No wind31%30.24 "Hg10 mi
Weather by CustomWeather, © 2020

See weather overview